Česky Dansk Deutsch English Español Suomi Français Magyar Italiano Nederlands norsk Polski Português svenska Türkçe

 

Het Weer

Deelen (Nederland)

01:55, 23 augustus 2016 (CET)

NWNNE
WE
SWSSE
Home            
Deelen Soesterberg Kalkar De Bilt Volkel Lelystad Niederrhein Laarbruch Twenthe Eindhoven Amsterdam Airport Schiphol Gilze-Rijen Weelde Military Nordhorn Brueggen Rotterdam Airport Zestienhoven Valkenburg Monchengladbach Kleine Brogel Duesseldorf Essen Rheine-Bentlage Hopsten

Om een weerknop op uw website of weblog te plaatsen, copieer onderstaande code en plak die in uw pagina. In het eerste vakje staat HTML-code, in het tweede vakje UBB-code.


Add to Google

Details

Wind speed:1 bf, 1 kn, 0.5 m/s, 1.2 miles/h, 1.9 km/h
Wind direction:Variable
Visibility:Greater than 10000 m, 10 km, 32800 ft, 6.2 miles
Clouds:Ein wenig bewölkt at 10000 ft, 3048 m
Temperature:14°C, 57°F
Dew-point:13°C, 55°F
Atmospheric pressure:1025 hPa, 768.8 mmHg, 30.27 inHg, 1.012 atm
Relative humidity:93.7 %
METAR:EHDL 222355Z AUTO VRB01KT 9999 FEW100 14/13 Q1025 BLU

Snelkoppelingen

Actuele weersinformatie van de hele wereld. Voeg locaties toe met het plus (+) symbool. Deze snelkoppelingen kunnen worden toegevoegd aan Google.

Lid van de Technetium groep

website free tracking
StatCounter NetStat W3C Validator

20-11-2017 02:31:42
astro.technetium.be money.technetium.be phote.technetium.be tafeltennistafel.technetium.be www.ligfiets.net